Time,TemperatureF,DewpointF,PressureIn,WindDirection,WindDirectionDegrees,WindSpeedMPH,WindSpeedGustMPH,Humidity,HourlyPrecipIn,Conditions,Clouds,dailyrainin,SoftwareType,DateUTC
2013-05-21 00:04:00,53.3,44.9,29.89,NNE,28,0.0,0.0,73,0.00,,---,0.00,VWS V14.01,2013-05-21 07:04:00,
2013-05-21 00:09:00,53.1,44.7,29.88,NW,312,0.0,0.0,73,0.00,,---,0.00,VWS V14.01,2013-05-21 07:09:00,
2013-05-21 00:14:00,52.9,44.8,29.89,WNW,297,0.0,0.0,74,0.00,,---,0.00,VWS V14.01,2013-05-21 07:14:00,
2013-05-21 00:19:00,52.6,44.9,29.89,WNW,303,0.0,0.0,75,0.00,,---,0.00,VWS V14.01,2013-05-21 07:19:00,
2013-05-21 00:25:00,52.3,44.6,29.89,NW,311,0.0,0.0,75,0.00,,---,0.00,VWS V14.01,2013-05-21 07:25:00,
2013-05-21 00:30:00,52.0,44.7,29.89,NW,326,0.0,0.0,76,0.00,,---,0.00,VWS V14.01,2013-05-21 07:30:00,
2013-05-21 00:35:00,51.9,44.6,29.89,North,5,0.0,0.0,76,0.00,,---,0.00,VWS V14.01,2013-05-21 07:35:00,
2013-05-21 00:40:00,51.7,44.4,29.89,WSW,252,0.0,0.0,76,0.00,,---,0.00,VWS V14.01,2013-05-21 07:40:00,
2013-05-21 00:45:00,51.4,44.1,29.89,NNW,346,0.0,0.0,76,0.00,,---,0.00,VWS V14.01,2013-05-21 07:45:00,
2013-05-21 00:50:00,51.3,44.0,29.89,NNW,341,0.0,0.0,76,0.00,,---,0.00,VWS V14.01,2013-05-21 07:50:00,
2013-05-21 00:55:00,51.1,43.8,29.88,North,360,0.0,0.0,76,0.00,,---,0.00,VWS V14.01,2013-05-21 07:55:00,
2013-05-21 01:00:00,51.0,43.7,29.88,NE,44,0.0,0.0,76,0.00,,---,0.00,VWS V14.01,2013-05-21 08:00:00,
2013-05-21 01:05:00,50.7,43.4,29.88,NNE,28,0.0,0.0,76,0.00,,---,0.00,VWS V14.01,2013-05-21 08:05:00,
2013-05-21 01:10:00,50.5,43.2,29.88,NE,49,0.0,0.0,76,0.00,,---,0.00,VWS V14.01,2013-05-21 08:10:00,
2013-05-21 01:15:00,50.5,43.2,29.88,NE,43,0.0,0.0,76,0.00,,---,0.00,VWS V14.01,2013-05-21 08:15:00,
2013-05-21 01:20:00,50.5,43.6,29.88,NNE,13,0.0,0.0,77,0.00,,---,0.00,VWS V14.01,2013-05-21 08:20:00,
2013-05-21 01:25:00,50.4,43.5,29.88,ENE,57,0.0,0.0,77,0.00,,---,0.00,VWS V14.01,2013-05-21 08:25:00,
2013-05-21 01:30:00,50.4,43.5,29.88,NNW,348,0.0,0.0,77,0.00,,---,0.00,VWS V14.01,2013-05-21 08:30:00,
2013-05-21 01:35:00,50.4,43.5,29.88,NW,315,0.0,0.0,77,0.00,,---,0.00,VWS V14.01,2013-05-21 08:35:00,
2013-05-21 01:40:00,49.9,43.0,29.88,NW,306,0.0,0.0,77,0.00,,---,0.00,VWS V14.01,2013-05-21 08:40:00,
2013-05-21 01:45:00,49.5,42.9,29.89,North,360,0.0,0.0,78,0.00,,---,0.00,VWS V14.01,2013-05-21 08:45:00,
2013-05-21 01:50:00,49.4,43.2,29.88,NW,315,0.0,0.0,79,0.00,,---,0.00,VWS V14.01,2013-05-21 08:50:00,
2013-05-21 01:55:00,49.2,43.0,29.87,NW,309,0.0,0.0,79,0.00,,---,0.00,VWS V14.01,2013-05-21 08:55:00,
2013-05-21 02:00:00,49.2,43.3,29.87,NW,325,0.0,0.0,80,0.00,,---,0.00,VWS V14.01,2013-05-21 09:00:00,
2013-05-21 02:05:00,49.1,43.5,29.87,WNW,294,0.0,0.0,81,0.00,,---,0.00,VWS V14.01,2013-05-21 09:05:00,
2013-05-21 02:10:00,48.8,43.2,29.87,WNW,290,0.0,0.0,81,0.00,,---,0.00,VWS V14.01,2013-05-21 09:10:00,
2013-05-21 02:16:00,48.6,43.4,29.87,North,360,0.0,0.0,82,0.00,,---,0.00,VWS V14.01,2013-05-21 09:16:00,
2013-05-21 02:21:00,48.5,43.3,29.86,NW,304,0.0,0.0,82,0.00,,---,0.00,VWS V14.01,2013-05-21 09:21:00,
2013-05-21 02:26:00,48.5,43.9,29.87,NW,304,0.0,0.0,84,0.00,,---,0.00,VWS V14.01,2013-05-21 09:26:00,
2013-05-21 02:31:00,48.5,43.9,29.87,NW,304,0.0,0.0,84,0.00,,---,0.00,VWS V14.01,2013-05-21 09:31:00,
2013-05-21 02:36:00,48.5,43.9,29.87,NW,304,0.0,0.0,84,0.00,,---,0.00,VWS V14.01,2013-05-21 09:36:00,
2013-05-21 02:41:00,48.6,44.3,29.87,NW,304,0.0,0.0,85,0.00,,---,0.00,VWS V14.01,2013-05-21 09:41:00,
2013-05-21 02:46:00,48.6,44.3,29.86,NW,304,0.0,0.0,85,0.00,,---,0.00,VWS V14.01,2013-05-21 09:46:00,
2013-05-21 02:51:00,48.6,44.3,29.85,WNW,300,0.0,0.0,85,0.00,,---,0.00,VWS V14.01,2013-05-21 09:51:00,
2013-05-21 02:56:00,48.5,44.2,29.86,NW,321,0.0,0.0,85,0.00,,---,0.00,VWS V14.01,2013-05-21 09:56:00,
2013-05-21 03:01:00,48.5,44.5,29.86,NE,46,0.0,0.0,86,0.00,,---,0.00,VWS V14.01,2013-05-21 10:01:00,
2013-05-21 03:06:00,48.5,44.5,29.86,NE,46,0.0,0.0,86,0.00,,---,0.00,VWS V14.01,2013-05-21 10:06:00,
2013-05-21 03:11:00,48.6,44.9,29.85,NE,44,0.0,0.0,87,0.00,,---,0.00,VWS V14.01,2013-05-21 10:11:00,
2013-05-21 03:16:00,48.6,44.9,29.85,NNW,346,0.0,0.0,87,0.00,,---,0.00,VWS V14.01,2013-05-21 10:16:00,
2013-05-21 03:21:00,48.6,44.9,29.84,NW,317,0.0,0.0,87,0.00,,---,0.00,VWS V14.01,2013-05-21 10:21:00,
2013-05-21 03:26:00,48.6,44.9,29.85,SW,234,0.0,0.0,87,0.00,,---,0.00,VWS V14.01,2013-05-21 10:26:00,
2013-05-21 03:31:00,48.5,44.8,29.85,SSW,193,0.0,0.0,87,0.00,,---,0.00,VWS V14.01,2013-05-21 10:31:00,
2013-05-21 03:36:00,48.3,44.6,29.85,WSW,244,0.0,0.0,87,0.00,,---,0.00,VWS V14.01,2013-05-21 10:36:00,
2013-05-21 03:41:00,48.2,44.5,29.85,SSW,198,0.0,0.0,87,0.00,,---,0.00,VWS V14.01,2013-05-21 10:41:00,
2013-05-21 03:46:00,47.9,44.2,29.85,South,184,0.0,0.0,87,0.00,,---,0.00,VWS V14.01,2013-05-21 10:46:00,
2013-05-21 03:51:00,47.6,43.9,29.85,South,187,0.0,0.0,87,0.00,,---,0.00,VWS V14.01,2013-05-21 10:51:00,
2013-05-21 03:56:00,47.6,43.9,29.85,WSW,246,0.0,0.0,87,0.00,,---,0.00,VWS V14.01,2013-05-21 10:56:00,
2013-05-21 04:02:00,47.4,43.4,29.85,SSW,195,0.0,0.0,86,0.00,,---,0.00,VWS V14.01,2013-05-21 11:02:00,
2013-05-21 04:07:00,47.3,43.3,29.84,SSW,212,0.0,0.0,86,0.00,,---,0.00,VWS V14.01,2013-05-21 11:07:00,
2013-05-21 04:12:00,47.1,43.1,29.84,SSW,212,0.0,0.0,86,0.00,,---,0.00,VWS V14.01,2013-05-21 11:12:00,
2013-05-21 04:17:00,47.1,43.1,29.84,SSW,212,0.0,0.0,86,0.00,,---,0.00,VWS V14.01,2013-05-21 11:17:00,
2013-05-21 04:22:00,47.1,43.1,29.85,SSW,212,0.0,0.0,86,0.00,,---,0.00,VWS V14.01,2013-05-21 11:22:00,
2013-05-21 04:27:00,47.1,43.1,29.85,SSW,211,0.0,0.0,86,0.00,,---,0.00,VWS V14.01,2013-05-21 11:27:00,
2013-05-21 04:32:00,47.1,43.1,29.85,South,188,0.0,0.0,86,0.00,,---,0.00,VWS V14.01,2013-05-21 11:32:00,
2013-05-21 04:37:00,47.1,43.1,29.84,South,181,0.0,0.0,86,0.00,,---,0.00,VWS V14.01,2013-05-21 11:37:00,
2013-05-21 04:42:00,47.0,43.0,29.84,SSW,210,0.0,0.0,86,0.00,,---,0.00,VWS V14.01,2013-05-21 11:42:00,
2013-05-21 04:47:00,46.8,42.8,29.84,SW,221,0.0,0.0,86,0.00,,---,0.00,VWS V14.01,2013-05-21 11:47:00,
2013-05-21 04:52:00,46.7,42.7,29.84,SW,231,0.0,0.0,86,0.00,,---,0.00,VWS V14.01,2013-05-21 11:52:00,
2013-05-21 04:57:00,46.5,42.5,29.84,SW,236,0.0,0.0,86,0.00,,---,0.00,VWS V14.01,2013-05-21 11:57:00,
2013-05-21 05:02:00,46.5,42.5,29.85,SSE,164,0.0,0.0,86,0.00,,---,0.00,VWS V14.01,2013-05-21 12:02:00,
2013-05-21 05:07:00,46.4,42.5,29.85,SSE,164,0.0,0.0,86,0.00,,---,0.00,VWS V14.01,2013-05-21 12:07:00,
2013-05-21 05:12:00,46.2,42.2,29.85,South,184,0.0,0.0,86,0.00,,---,0.00,VWS V14.01,2013-05-21 12:12:00,
2013-05-21 05:17:00,46.1,42.2,29.84,SW,227,0.0,0.0,86,0.00,,---,0.00,VWS V14.01,2013-05-21 12:17:00,
2013-05-21 05:22:00,46.1,42.2,29.84,SW,227,0.0,0.0,86,0.00,,---,0.00,VWS V14.01,2013-05-21 12:22:00,
2013-05-21 05:27:00,46.1,42.2,29.84,SE,139,0.0,0.0,86,0.00,,---,0.00,VWS V14.01,2013-05-21 12:27:00,
2013-05-21 05:33:00,46.1,42.2,29.84,SE,130,0.0,0.0,86,0.00,,---,0.00,VWS V14.01,2013-05-21 12:33:00,
2013-05-21 05:38:00,46.2,42.5,29.84,SSE,165,0.0,0.0,87,0.00,,---,0.00,VWS V14.01,2013-05-21 12:38:00,
2013-05-21 05:43:00,46.2,42.5,29.84,SE,132,0.0,0.0,87,0.00,,---,0.00,VWS V14.01,2013-05-21 12:43:00,
2013-05-21 05:48:00,46.2,42.5,29.84,SSE,155,0.0,0.0,87,0.00,,---,0.00,VWS V14.01,2013-05-21 12:48:00,
2013-05-21 05:53:00,46.1,42.5,29.84,SE,135,0.0,0.0,87,0.00,,---,0.00,VWS V14.01,2013-05-21 12:53:00,
2013-05-21 05:58:00,46.0,42.3,29.83,WSW,252,0.0,0.0,87,0.00,,---,0.00,VWS V14.01,2013-05-21 12:58:00,
2013-05-21 06:03:00,46.0,42.3,29.84,SE,144,0.0,0.0,87,0.00,,---,0.00,VWS V14.01,2013-05-21 13:03:00,
2013-05-21 06:08:00,46.0,42.3,29.83,South,188,0.0,0.0,87,0.00,,---,0.00,VWS V14.01,2013-05-21 13:08:00,
2013-05-21 06:13:00,46.0,42.3,29.83,South,178,0.0,0.0,87,0.00,,---,0.00,VWS V14.01,2013-05-21 13:13:00,
2013-05-21 06:18:00,46.1,42.5,29.83,SSE,153,0.0,0.0,87,0.00,,---,0.00,VWS V14.01,2013-05-21 13:18:00,
2013-05-21 06:23:00,46.1,42.5,29.83,SW,228,0.0,0.0,87,0.00,,---,0.00,VWS V14.01,2013-05-21 13:23:00,
2013-05-21 06:28:00,46.1,42.5,29.83,South,184,0.0,0.0,87,0.00,,---,0.00,VWS V14.01,2013-05-21 13:28:00,
2013-05-21 06:33:00,46.0,42.3,29.83,SSE,161,0.0,0.0,87,0.00,,---,0.00,VWS V14.01,2013-05-21 13:33:00,
2013-05-21 06:38:00,46.0,42.3,29.83,SSW,196,0.0,0.0,87,0.00,,---,0.00,VWS V14.01,2013-05-21 13:38:00,
2013-05-21 06:43:00,46.0,42.3,29.83,ESE,113,0.0,0.0,87,0.00,,---,0.00,VWS V14.01,2013-05-21 13:43:00,
2013-05-21 06:48:00,46.0,42.3,29.83,SSW,203,0.0,0.0,87,0.00,,---,0.00,VWS V14.01,2013-05-21 13:48:00,
2013-05-21 06:54:00,45.8,42.2,29.83,SSW,205,0.0,0.0,87,0.00,,---,0.00,VWS V14.01,2013-05-21 13:54:00,
2013-05-21 06:59:00,45.8,42.2,29.83,South,187,0.0,0.0,87,0.00,,---,0.00,VWS V14.01,2013-05-21 13:59:00,
2013-05-21 07:04:00,45.8,42.2,29.83,SW,215,0.0,0.0,87,0.00,,---,0.00,VWS V14.01,2013-05-21 14:04:00,
2013-05-21 07:09:00,45.8,42.2,29.83,SSE,165,0.0,0.0,87,0.00,,---,0.00,VWS V14.01,2013-05-21 14:09:00,
2013-05-21 07:14:00,46.0,42.7,29.83,SSW,203,0.0,0.0,88,0.00,,---,0.00,VWS V14.01,2013-05-21 14:14:00,
2013-05-21 07:19:00,46.1,42.8,29.83,SW,227,0.0,0.0,88,0.00,,---,0.00,VWS V14.01,2013-05-21 14:19:00,
2013-05-21 07:24:00,46.1,42.8,29.82,South,184,0.0,0.0,88,0.00,,---,0.00,VWS V14.01,2013-05-21 14:24:00,
2013-05-21 07:29:00,46.2,42.8,29.82,South,173,0.0,0.0,88,0.00,,---,0.00,VWS V14.01,2013-05-21 14:29:00,
2013-05-21 07:34:00,46.2,42.8,29.82,South,185,0.0,0.0,88,0.00,,---,0.00,VWS V14.01,2013-05-21 14:34:00,
2013-05-21 07:39:00,46.2,42.5,29.82,South,184,0.0,0.0,87,0.00,,---,0.00,VWS V14.01,2013-05-21 14:39:00,
2013-05-21 07:44:00,46.4,42.8,29.82,SE,126,0.0,0.0,87,0.00,,---,0.00,VWS V14.01,2013-05-21 14:44:00,
2013-05-21 07:49:00,46.2,42.5,29.82,SSW,196,0.0,0.0,87,0.00,,---,0.00,VWS V14.01,2013-05-21 14:49:00,
2013-05-21 07:54:00,46.4,42.8,29.82,SE,133,0.0,0.0,87,0.00,,---,0.00,VWS V14.01,2013-05-21 14:54:00,
2013-05-21 07:59:00,46.4,42.8,29.81,WSW,239,0.0,0.0,87,0.00,,---,0.00,VWS V14.01,2013-05-21 14:59:00,
2013-05-21 08:04:00,46.4,42.8,29.82,SW,231,0.0,0.0,87,0.00,,---,0.00,VWS V14.01,2013-05-21 15:04:00,
2013-05-21 08:09:00,46.4,42.8,29.82,South,181,0.0,0.0,87,0.00,,---,0.00,VWS V14.01,2013-05-21 15:09:00,
2013-05-21 08:14:00,46.4,42.8,29.82,SSE,152,0.0,0.0,87,0.00,,---,0.00,VWS V14.01,2013-05-21 15:14:00,
2013-05-21 08:20:00,46.4,42.8,29.82,South,176,0.0,0.0,87,0.00,,---,0.00,VWS V14.01,2013-05-21 15:20:00,
2013-05-21 08:25:00,46.5,42.8,29.82,SSE,161,0.0,0.0,87,0.00,,---,0.00,VWS V14.01,2013-05-21 15:25:00,
2013-05-21 08:30:00,46.4,42.8,29.82,SSE,157,0.0,0.0,87,0.00,,---,0.00,VWS V14.01,2013-05-21 15:30:00,
2013-05-21 08:35:00,46.4,42.8,29.81,South,188,0.0,0.0,87,0.00,,---,0.00,VWS V14.01,2013-05-21 15:35:00,
2013-05-21 08:40:00,46.4,42.8,29.81,South,191,0.0,0.0,87,0.00,,---,0.00,VWS V14.01,2013-05-21 15:40:00,
2013-05-21 08:45:00,46.5,42.5,29.81,SSW,213,0.0,0.0,86,0.00,,---,0.00,VWS V14.01,2013-05-21 15:45:00,
2013-05-21 08:50:00,46.5,42.5,29.81,SSE,151,0.0,0.0,86,0.00,,---,0.00,VWS V14.01,2013-05-21 15:50:00,
2013-05-21 08:55:00,46.7,42.7,29.81,SSW,208,0.0,0.0,86,0.00,,---,0.00,VWS V14.01,2013-05-21 15:55:00,
2013-05-21 09:00:00,46.8,42.8,29.80,SSW,193,0.0,0.0,86,0.00,,---,0.00,VWS V14.01,2013-05-21 16:00:00,
2013-05-21 09:05:00,46.8,42.8,29.80,SW,218,0.0,0.0,86,0.00,,---,0.00,VWS V14.01,2013-05-21 16:05:00,
2013-05-21 09:10:00,46.8,42.8,29.80,SSW,209,0.0,0.0,86,0.00,,---,0.00,VWS V14.01,2013-05-21 16:10:00,
2013-05-21 09:15:00,47.0,43.0,29.80,South,169,0.0,0.0,86,0.00,,---,0.00,VWS V14.01,2013-05-21 16:15:00,
2013-05-21 09:20:00,47.0,43.0,29.80,ESE,102,0.0,0.0,86,0.00,,---,0.00,VWS V14.01,2013-05-21 16:20:00,
2013-05-21 09:25:00,47.0,42.7,29.80,SW,227,0.0,0.0,85,0.00,,---,0.00,VWS V14.01,2013-05-21 16:25:00,
2013-05-21 09:30:00,47.1,42.8,29.80,SSE,159,0.0,0.0,85,0.00,,---,0.00,VWS V14.01,2013-05-21 16:30:00,
2013-05-21 09:35:00,47.1,42.8,29.80,SW,217,0.0,0.0,85,0.00,,---,0.00,VWS V14.01,2013-05-21 16:35:00,
2013-05-21 09:40:00,47.3,43.0,29.80,SW,233,0.0,0.0,85,0.00,,---,0.00,VWS V14.01,2013-05-21 16:40:00,
2013-05-21 09:45:00,47.3,43.0,29.80,SSW,205,0.0,0.0,85,0.00,,---,0.00,VWS V14.01,2013-05-21 16:45:00,
2013-05-21 09:51:00,47.3,42.7,29.80,SW,223,0.0,0.0,84,0.00,,---,0.00,VWS V14.01,2013-05-21 16:51:00,
2013-05-21 09:56:00,47.4,42.8,29.79,ESE,119,0.0,0.0,84,0.00,,---,0.00,VWS V14.01,2013-05-21 16:56:00,
2013-05-21 10:01:00,47.6,43.0,29.80,South,187,0.0,0.0,84,0.00,,---,0.00,VWS V14.01,2013-05-21 17:01:00,
2013-05-21 10:06:00,47.6,43.0,29.80,South,182,0.0,0.0,84,0.00,,---,0.00,VWS V14.01,2013-05-21 17:06:00,
2013-05-21 10:11:00,47.6,43.0,29.80,SSE,167,0.0,0.0,84,0.00,,---,0.00,VWS V14.01,2013-05-21 17:11:00,
2013-05-21 10:16:00,47.7,42.8,29.80,SE,146,0.0,0.0,83,0.00,,---,0.00,VWS V14.01,2013-05-21 17:16:00,
2013-05-21 10:21:00,47.7,42.8,29.79,SSE,167,0.0,0.0,83,0.00,,---,0.00,VWS V14.01,2013-05-21 17:21:00,
2013-05-21 10:26:00,47.9,43.0,29.79,SW,230,0.0,0.0,83,0.00,,---,0.00,VWS V14.01,2013-05-21 17:26:00,
2013-05-21 10:31:00,48.0,43.1,29.79,SSW,192,0.0,0.0,83,0.00,,---,0.00,VWS V14.01,2013-05-21 17:31:00,
2013-05-21 10:36:00,48.2,43.0,29.79,SSW,205,0.0,0.0,82,0.00,,---,0.00,VWS V14.01,2013-05-21 17:36:00,
2013-05-21 10:41:00,48.3,43.4,29.79,South,188,0.0,0.0,83,0.00,,---,0.00,VWS V14.01,2013-05-21 17:41:00,
2013-05-21 10:46:00,48.6,43.7,29.79,SSW,193,0.0,0.0,83,0.00,,---,0.00,VWS V14.01,2013-05-21 17:46:00,
2013-05-21 10:51:00,48.8,43.6,29.79,SSW,200,0.0,0.0,82,0.00,,---,0.00,VWS V14.01,2013-05-21 17:51:00,
2013-05-21 10:56:00,48.9,43.3,29.79,SSE,147,0.0,0.0,81,0.00,,---,0.00,VWS V14.01,2013-05-21 17:56:00,
2013-05-21 11:01:00,49.2,43.6,29.78,South,189,0.0,0.0,81,0.00,,---,0.00,VWS V14.01,2013-05-21 18:01:00,
2013-05-21 11:06:00,49.2,43.6,29.78,SSE,150,0.0,0.0,81,0.00,,---,0.00,VWS V14.01,2013-05-21 18:06:00,
2013-05-21 11:11:00,49.5,43.6,29.78,SSW,202,0.0,0.0,80,0.00,,---,0.00,VWS V14.01,2013-05-21 18:11:00,
2013-05-21 11:16:00,49.6,43.4,29.79,SSE,157,0.0,0.0,79,0.00,,---,0.00,VWS V14.01,2013-05-21 18:16:00,
2013-05-21 11:21:00,49.9,43.7,29.78,SSE,158,0.0,0.0,79,0.00,,---,0.00,VWS V14.01,2013-05-21 18:21:00,
2013-05-21 11:27:00,50.4,43.8,29.78,SSE,158,0.0,0.0,78,0.00,,---,0.00,VWS V14.01,2013-05-21 18:27:00,
2013-05-21 11:32:00,50.5,43.6,29.78,South,171,0.0,0.0,77,0.00,,---,0.00,VWS V14.01,2013-05-21 18:32:00,
2013-05-21 11:37:00,50.8,43.2,29.78,SSW,200,0.0,0.0,75,0.00,,---,0.00,VWS V14.01,2013-05-21 18:37:00,
2013-05-21 11:42:00,51.4,43.8,29.79,ESE,123,0.0,0.0,75,0.00,,---,0.00,VWS V14.01,2013-05-21 18:42:00,
2013-05-21 11:47:00,51.7,43.0,29.79,SSW,213,0.0,0.0,72,0.00,,---,0.00,VWS V14.01,2013-05-21 18:47:00,
2013-05-21 11:52:00,51.9,42.8,29.78,SW,234,0.0,0.0,71,0.00,,---,0.00,VWS V14.01,2013-05-21 18:52:00,
2013-05-21 11:57:00,52.0,42.2,29.78,SE,134,0.0,0.0,69,0.00,,---,0.00,VWS V14.01,2013-05-21 18:57:00,
2013-05-21 12:02:00,52.0,41.8,29.78,SW,217,0.0,0.0,68,0.00,,---,0.00,VWS V14.01,2013-05-21 19:02:00,
2013-05-21 12:07:00,52.3,42.5,29.78,ESE,110,0.0,0.0,69,0.00,,---,0.00,VWS V14.01,2013-05-21 19:07:00,
2013-05-21 12:12:00,52.5,42.6,29.78,SSW,209,0.0,0.0,69,0.00,,---,0.00,VWS V14.01,2013-05-21 19:12:00,
2013-05-21 12:17:00,52.5,41.9,29.78,SSW,202,0.0,0.0,67,0.00,,---,0.00,VWS V14.01,2013-05-21 19:17:00,
2013-05-21 12:22:00,52.6,42.3,29.78,SW,222,0.0,0.0,68,0.00,,---,0.00,VWS V14.01,2013-05-21 19:22:00,
2013-05-21 12:27:00,52.6,42.0,29.78,SSW,201,0.0,0.0,67,0.00,,---,0.00,VWS V14.01,2013-05-21 19:27:00,
2013-05-21 12:32:00,52.6,42.0,29.78,East,92,0.0,0.0,67,0.00,,---,0.00,VWS V14.01,2013-05-21 19:32:00,
2013-05-21 12:37:00,52.6,42.0,29.78,SE,126,0.0,0.0,67,0.00,,---,0.00,VWS V14.01,2013-05-21 19:37:00,
2013-05-21 12:43:00,52.5,42.3,29.78,SSW,209,0.0,0.0,68,0.00,,---,0.00,VWS V14.01,2013-05-21 19:43:00,
2013-05-21 12:48:00,52.6,43.1,29.78,South,179,0.0,0.0,70,0.00,,---,0.00,VWS V14.01,2013-05-21 19:48:00,
2013-05-21 12:52:00,52.5,43.0,29.78,South,179,0.0,0.0,70,0.00,,---,0.00,VWS V14.01,2013-05-21 19:52:00,
2013-05-21 12:58:00,52.6,42.7,29.77,South,179,0.0,0.0,69,0.00,,---,0.00,VWS V14.01,2013-05-21 19:58:00,
2013-05-21 13:03:00,52.5,42.6,29.77,South,190,0.0,0.0,69,0.00,,---,0.00,VWS V14.01,2013-05-21 20:03:00,
2013-05-21 13:08:00,52.6,43.1,29.78,SW,227,0.0,0.0,70,0.00,,---,0.00,VWS V14.01,2013-05-21 20:08:00,
2013-05-21 13:13:00,52.8,43.3,29.78,SSE,166,0.0,0.0,70,0.00,,---,0.00,VWS V14.01,2013-05-21 20:13:00,
2013-05-21 13:18:00,52.9,42.6,29.78,SE,137,0.0,0.0,68,0.00,,---,0.00,VWS V14.01,2013-05-21 20:18:00,
2013-05-21 13:23:00,53.2,42.5,29.78,South,188,0.0,0.0,67,0.00,,---,0.00,VWS V14.01,2013-05-21 20:23:00,
2013-05-21 13:28:00,53.5,42.0,29.78,SSW,205,0.0,0.0,65,0.00,,---,0.00,VWS V14.01,2013-05-21 20:28:00,
2013-05-21 13:33:00,53.6,42.1,29.78,SSE,148,0.0,0.0,65,0.00,,---,0.00,VWS V14.01,2013-05-21 20:33:00,
2013-05-21 13:38:00,53.8,41.1,29.77,SW,221,0.0,0.0,62,0.00,,---,0.00,VWS V14.01,2013-05-21 20:38:00,
2013-05-21 13:43:00,54.2,41.5,29.77,SSW,204,0.0,0.0,62,0.00,,---,0.00,VWS V14.01,2013-05-21 20:43:00,
2013-05-21 13:48:00,54.5,41.3,29.77,WSW,244,0.0,0.0,61,0.00,,---,0.00,VWS V14.01,2013-05-21 20:48:00,
2013-05-21 13:53:00,55.0,41.4,29.77,WSW,248,0.0,0.0,60,0.00,,---,0.00,VWS V14.01,2013-05-21 20:53:00,
2013-05-21 13:58:00,55.1,41.5,29.77,SW,226,0.0,0.0,60,0.00,,---,0.00,VWS V14.01,2013-05-21 20:58:00,
2013-05-21 14:03:00,55.4,41.8,29.77,SSE,148,0.0,0.0,60,0.00,,---,0.00,VWS V14.01,2013-05-21 21:03:00,
2013-05-21 14:08:00,55.6,41.5,29.77,SSE,157,0.0,0.0,59,0.00,,---,0.00,VWS V14.01,2013-05-21 21:08:00,
2013-05-21 14:14:00,55.6,42.0,29.77,SSW,207,0.0,0.0,60,0.00,,---,0.00,VWS V14.01,2013-05-21 21:14:00,
2013-05-21 14:19:00,55.6,42.0,29.77,SW,215,0.0,0.0,60,0.00,,---,0.00,VWS V14.01,2013-05-21 21:19:00,
2013-05-21 14:24:00,55.7,42.0,29.77,WSW,240,0.0,0.0,60,0.00,,---,0.00,VWS V14.01,2013-05-21 21:24:00,
2013-05-21 14:29:00,56.0,41.9,29.77,WSW,255,0.0,0.0,59,0.00,,---,0.00,VWS V14.01,2013-05-21 21:29:00,
2013-05-21 14:34:00,56.5,46.5,29.77,WSW,251,3.0,3.0,69,0.00,,---,0.00,VWS V14.01,2013-05-21 21:34:00,
2013-05-21 14:39:00,56.2,47.3,29.77,West,267,9.0,9.0,72,0.00,,---,0.00,VWS V14.01,2013-05-21 21:39:00,
2013-05-21 14:44:00,54.3,48.6,29.78,WNW,286,3.0,18.0,81,0.00,,---,0.00,VWS V14.01,2013-05-21 21:44:00,
2013-05-21 14:49:00,52.4,48.0,29.78,West,279,2.0,18.0,85,0.00,,---,0.00,VWS V14.01,2013-05-21 21:49:00,
2013-05-21 14:54:00,51.5,47.8,29.78,WNW,300,0.0,18.0,87,0.00,,---,0.00,VWS V14.01,2013-05-21 21:54:00,
2013-05-21 14:59:00,50.9,47.5,29.77,West,273,3.0,18.0,88,0.01,,---,0.01,VWS V14.01,2013-05-21 21:59:00,
2013-05-21 15:04:00,50.8,47.1,29.77,WNW,294,3.0,6.0,87,0.01,,---,0.01,VWS V14.01,2013-05-21 22:04:00,
2013-05-21 15:09:00,50.9,47.8,29.78,WNW,300,3.0,6.0,89,0.01,,---,0.01,VWS V14.01,2013-05-21 22:09:00,
2013-05-21 15:14:00,50.9,47.5,29.78,NW,311,1.0,6.0,88,0.01,,---,0.01,VWS V14.01,2013-05-21 22:14:00,
2013-05-21 15:19:00,51.0,47.6,29.78,West,267,2.0,6.0,88,0.02,,---,0.02,VWS V14.01,2013-05-21 22:19:00,
2013-05-21 15:25:00,51.3,48.2,29.78,NW,304,0.0,6.0,89,0.02,,---,0.02,VWS V14.01,2013-05-21 22:25:00,
2013-05-21 15:30:00,51.9,48.5,29.78,WNW,294,0.0,6.0,88,0.02,,---,0.02,VWS V14.01,2013-05-21 22:30:00,
2013-05-21 15:35:00,53.0,49.5,29.77,SW,225,0.0,3.0,88,0.02,,---,0.02,VWS V14.01,2013-05-21 22:35:00,
2013-05-21 15:40:00,53.8,49.1,29.77,WNW,292,1.0,3.0,84,0.02,,---,0.02,VWS V14.01,2013-05-21 22:40:00,
2013-05-21 15:45:00,54.2,49.2,29.77,WNW,298,0.0,4.0,83,0.02,,---,0.02,VWS V14.01,2013-05-21 22:45:00,
2013-05-21 15:50:00,54.8,50.1,29.77,WSW,248,2.0,4.0,84,0.02,,---,0.02,VWS V14.01,2013-05-21 22:50:00,
2013-05-21 15:55:00,55.2,49.2,29.77,West,275,0.0,5.0,80,0.02,,---,0.02,VWS V14.01,2013-05-21 22:55:00,
2013-05-21 16:00:00,55.1,49.4,29.77,West,269,0.0,7.0,81,0.02,,---,0.02,VWS V14.01,2013-05-21 23:00:00,
2013-05-21 16:05:00,54.7,49.0,29.77,WSW,255,1.0,5.0,81,0.01,,---,0.02,VWS V14.01,2013-05-21 23:05:00,
2013-05-21 16:10:00,54.3,48.6,29.77,West,266,2.0,5.0,81,0.01,,---,0.02,VWS V14.01,2013-05-21 23:10:00,
2013-05-21 16:15:00,53.9,47.5,29.77,NW,305,2.0,5.0,79,0.01,,---,0.02,VWS V14.01,2013-05-21 23:15:00,
2013-05-21 16:20:00,53.6,47.3,29.77,WSW,251,1.0,5.0,79,0.01,,---,0.02,VWS V14.01,2013-05-21 23:20:00,
2013-05-21 16:25:00,53.5,48.5,29.78,WSW,250,3.0,5.0,83,0.01,,---,0.02,VWS V14.01,2013-05-21 23:25:00,
2013-05-21 16:30:00,53.5,47.5,29.77,West,259,1.0,1.0,80,0.00,,---,0.02,VWS V14.01,2013-05-21 23:30:00,
2013-05-21 16:35:00,53.4,48.4,29.77,SW,230,2.0,4.0,83,0.00,,---,0.02,VWS V14.01,2013-05-21 23:35:00,
2013-05-21 16:41:00,53.3,48.3,29.77,WSW,240,0.0,4.0,83,0.00,,---,0.02,VWS V14.01,2013-05-21 23:41:00,
2013-05-21 16:46:00,53.3,48.0,29.77,WSW,240,1.0,4.0,82,0.00,,---,0.02,VWS V14.01,2013-05-21 23:46:00,
2013-05-21 16:51:00,53.2,47.5,29.77,WNW,300,0.0,4.0,81,0.00,,---,0.02,VWS V14.01,2013-05-21 23:51:00,
2013-05-21 16:56:00,53.0,47.3,29.77,WNW,301,2.0,4.0,81,0.00,,---,0.02,VWS V14.01,2013-05-21 23:56:00,
2013-05-21 17:01:00,52.9,47.9,29.77,West,281,1.0,2.0,83,0.00,,---,0.02,VWS V14.01,2013-05-22 00:01:00,
2013-05-21 17:06:00,52.8,48.1,29.77,WSW,248,3.0,4.0,84,0.00,,---,0.02,VWS V14.01,2013-05-22 00:06:00,
2013-05-21 17:11:00,53.3,49.5,29.77,NW,307,2.0,5.0,87,0.00,,---,0.02,VWS V14.01,2013-05-22 00:11:00,
2013-05-21 17:16:00,53.8,49.1,29.77,NW,310,0.0,5.0,84,0.00,,---,0.02,VWS V14.01,2013-05-22 00:16:00,
2013-05-21 17:21:00,53.8,48.8,29.77,NW,310,0.0,5.0,83,0.00,,---,0.02,VWS V14.01,2013-05-22 00:21:00,
2013-05-21 17:26:00,53.8,48.1,29.77,SW,223,1.0,5.0,81,0.00,,---,0.02,VWS V14.01,2013-05-22 00:26:00,
2013-05-21 17:31:00,53.7,48.0,29.77,West,269,0.0,0.0,81,0.00,,---,0.02,VWS V14.01,2013-05-22 00:31:00,
2013-05-21 17:36:00,53.9,48.5,29.77,WSW,256,5.0,6.0,82,0.00,,---,0.02,VWS V14.01,2013-05-22 00:36:00,
2013-05-21 17:41:00,53.9,48.2,29.77,WNW,302,0.0,6.0,81,0.00,,---,0.02,VWS V14.01,2013-05-22 00:41:00,
2013-05-21 17:46:00,54.1,48.1,29.77,East,98,0.0,6.0,80,0.00,,---,0.02,VWS V14.01,2013-05-22 00:46:00,
2013-05-21 17:51:00,54.3,48.6,29.77,South,183,0.0,6.0,81,0.00,,---,0.02,VWS V14.01,2013-05-22 00:51:00,
2013-05-21 17:56:00,54.4,48.4,29.77,West,261,3.0,6.0,80,0.00,,---,0.02,VWS V14.01,2013-05-22 00:56:00,
2013-05-21 18:01:00,53.8,48.1,29.77,WNW,299,1.0,2.0,81,0.00,,---,0.02,VWS V14.01,2013-05-22 01:01:00,
2013-05-21 18:06:00,53.4,47.7,29.77,West,276,2.0,3.0,81,0.00,,---,0.02,VWS V14.01,2013-05-22 01:06:00,
2013-05-21 18:11:00,53.1,48.4,29.78,WSW,241,2.0,5.0,84,0.00,,---,0.02,VWS V14.01,2013-05-22 01:11:00,
2013-05-21 18:17:00,52.7,48.3,29.78,West,263,0.0,9.0,85,0.00,,---,0.02,VWS V14.01,2013-05-22 01:17:00,
2013-05-21 18:22:00,52.3,48.2,29.78,WSW,237,0.0,9.0,86,0.01,,---,0.03,VWS V14.01,2013-05-22 01:22:00,
2013-05-21 18:27:00,51.9,48.5,29.78,West,270,1.0,9.0,88,0.02,,---,0.04,VWS V14.01,2013-05-22 01:27:00,
2013-05-21 18:32:00,51.6,48.2,29.78,West,264,2.0,4.0,88,0.03,,---,0.05,VWS V14.01,2013-05-22 01:32:00,
2013-05-21 18:37:00,51.4,48.3,29.78,West,265,0.0,4.0,89,0.03,,---,0.05,VWS V14.01,2013-05-22 01:37:00,
2013-05-21 18:42:00,51.3,48.5,29.78,West,265,0.0,4.0,90,0.03,,---,0.05,VWS V14.01,2013-05-22 01:42:00,
2013-05-21 18:47:00,51.4,48.6,29.78,West,265,0.0,4.0,90,0.03,,---,0.05,VWS V14.01,2013-05-22 01:47:00,
2013-05-21 18:52:00,51.5,48.7,29.78,West,265,2.0,4.0,90,0.03,,---,0.05,VWS V14.01,2013-05-22 01:52:00,
2013-05-21 18:57:00,51.5,48.7,29.79,West,265,1.0,4.0,90,0.03,,---,0.05,VWS V14.01,2013-05-22 01:57:00,
2013-05-21 19:02:00,51.4,48.3,29.79,West,265,0.0,0.0,89,0.03,,---,0.05,VWS V14.01,2013-05-22 02:02:00,
2013-05-21 19:07:00,51.5,48.7,29.79,West,265,0.0,0.0,90,0.03,,---,0.05,VWS V14.01,2013-05-22 02:07:00,
2013-05-21 19:12:00,51.5,48.7,29.79,West,265,0.0,0.0,90,0.03,,---,0.05,VWS V14.01,2013-05-22 02:12:00,
2013-05-21 19:17:00,51.5,48.7,29.80,West,265,0.0,1.0,90,0.03,,---,0.05,VWS V14.01,2013-05-22 02:17:00,
2013-05-21 19:22:00,51.5,48.7,29.80,West,265,0.0,1.0,90,0.03,,---,0.05,VWS V14.01,2013-05-22 02:22:00,
2013-05-21 19:27:00,51.5,48.7,29.80,West,265,0.0,2.0,90,0.03,,---,0.05,VWS V14.01,2013-05-22 02:27:00,
2013-05-21 19:32:00,51.5,49.0,29.80,West,265,0.0,3.0,91,0.00,,---,0.05,VWS V14.01,2013-05-22 02:32:00,
2013-05-21 19:37:00,51.4,48.6,29.80,West,265,0.0,3.0,90,0.00,,---,0.05,VWS V14.01,2013-05-22 02:37:00,
2013-05-21 19:42:00,51.3,48.8,29.80,West,265,0.0,3.0,91,0.00,,---,0.05,VWS V14.01,2013-05-22 02:42:00,
2013-05-21 19:48:00,51.3,48.8,29.81,West,265,0.0,3.0,91,0.00,,---,0.05,VWS V14.01,2013-05-22 02:48:00,
2013-05-21 19:53:00,51.2,48.7,29.81,West,265,0.0,3.0,91,0.00,,---,0.05,VWS V14.01,2013-05-22 02:53:00,
2013-05-21 19:58:00,51.1,48.6,29.81,West,265,0.0,3.0,91,0.00,,---,0.05,VWS V14.01,2013-05-22 02:58:00,
2013-05-21 20:03:00,51.0,48.5,29.81,West,265,0.0,1.0,91,0.00,,---,0.05,VWS V14.01,2013-05-22 03:03:00,
2013-05-21 20:08:00,51.0,48.5,29.81,WSW,245,0.0,1.0,91,0.00,,---,0.05,VWS V14.01,2013-05-22 03:08:00,
2013-05-21 20:13:00,50.8,47.7,29.81,SE,139,3.0,7.0,89,0.00,,---,0.05,VWS V14.01,2013-05-22 03:13:00,
2013-05-21 20:18:00,50.5,46.8,29.81,SE,138,0.0,7.0,87,0.00,,---,0.05,VWS V14.01,2013-05-22 03:18:00,
2013-05-21 20:23:00,50.3,46.3,29.82,SE,133,0.0,7.0,86,0.00,,---,0.05,VWS V14.01,2013-05-22 03:23:00,
2013-05-21 20:28:00,50.1,46.1,29.82,West,277,0.0,7.0,86,0.00,,---,0.05,VWS V14.01,2013-05-22 03:28:00,
2013-05-21 20:33:00,49.9,46.2,29.82,South,173,0.0,2.0,87,0.00,,---,0.05,VWS V14.01,2013-05-22 03:33:00,
2013-05-21 20:38:00,49.8,46.1,29.82,SW,221,0.0,3.0,87,0.00,,---,0.05,VWS V14.01,2013-05-22 03:38:00,
2013-05-21 20:43:00,49.6,45.6,29.82,SE,137,0.0,5.0,86,0.00,,---,0.05,VWS V14.01,2013-05-22 03:43:00,
2013-05-21 20:48:00,49.4,45.4,29.82,SSW,196,0.0,5.0,86,0.00,,---,0.05,VWS V14.01,2013-05-22 03:48:00,
2013-05-21 20:53:00,49.3,45.3,29.82,South,171,2.0,5.0,86,0.00,,---,0.05,VWS V14.01,2013-05-22 03:53:00,
2013-05-21 20:58:00,49.2,45.2,29.82,SSW,206,0.0,6.0,86,0.00,,---,0.05,VWS V14.01,2013-05-22 03:58:00,
2013-05-21 21:01:00,49.2,45.5,29.83,SSE,168,0.0,0.0,87,0.00,,---,0.05,VWS V14.01,2013-05-22 04:01:00,
2013-05-21 21:02:00,49.2,45.5,29.83,SW,236,0.0,4.0,87,0.00,,---,0.05,VWS V14.01,2013-05-22 04:02:00,
2013-05-21 21:03:00,49.2,45.5,29.83,SSE,159,0.0,4.0,87,0.00,,---,0.05,VWS V14.01,2013-05-22 04:03:00,
2013-05-21 21:08:00,49.2,45.5,29.83,SSE,168,0.0,4.0,87,0.00,,---,0.05,VWS V14.01,2013-05-22 04:08:00,
2013-05-21 21:13:00,49.1,45.4,29.83,South,183,0.0,4.0,87,0.00,,---,0.05,VWS V14.01,2013-05-22 04:13:00,
2013-05-21 21:18:00,49.1,45.1,29.83,SSW,204,0.0,4.0,86,0.00,,---,0.05,VWS V14.01,2013-05-22 04:18:00,
2013-05-21 21:23:00,49.1,45.4,29.83,SSW,194,0.0,6.0,87,0.00,,---,0.05,VWS V14.01,2013-05-22 04:23:00,
2013-05-21 21:28:00,49.1,45.4,29.83,SSE,167,0.0,6.0,87,0.00,,---,0.05,VWS V14.01,2013-05-22 04:28:00,
2013-05-21 21:33:00,49.1,45.4,29.83,ESE,122,0.0,3.0,87,0.00,,---,0.05,VWS V14.01,2013-05-22 04:33:00,
2013-05-21 21:38:00,49.1,45.1,29.83,SSW,199,0.0,3.0,86,0.00,,---,0.05,VWS V14.01,2013-05-22 04:38:00,
2013-05-21 21:43:00,49.1,44.8,29.83,SE,130,1.0,5.0,85,0.00,,---,0.05,VWS V14.01,2013-05-22 04:43:00,
2013-05-21 21:48:00,49.0,44.7,29.83,SSE,161,1.0,6.0,85,0.00,,---,0.05,VWS V14.01,2013-05-22 04:48:00,
2013-05-21 21:53:00,49.0,45.0,29.84,South,173,1.0,10.0,86,0.00,,---,0.05,VWS V14.01,2013-05-22 04:53:00,
2013-05-21 21:58:00,48.9,44.9,29.84,WSW,238,3.0,10.0,86,0.00,,---,0.05,VWS V14.01,2013-05-22 04:58:00,
2013-05-21 22:03:00,48.9,44.9,29.83,SW,225,0.0,10.0,86,0.00,,---,0.05,VWS V14.01,2013-05-22 05:03:00,
2013-05-21 22:08:00,48.8,44.8,29.83,West,262,2.0,10.0,86,0.00,,---,0.05,VWS V14.01,2013-05-22 05:08:00,
2013-05-21 22:13:00,48.7,44.7,29.83,SW,221,0.0,10.0,86,0.00,,---,0.05,VWS V14.01,2013-05-22 05:13:00,
2013-05-21 22:18:00,48.7,45.0,29.83,WSW,257,0.0,10.0,87,0.00,,---,0.05,VWS V14.01,2013-05-22 05:18:00,
2013-05-21 22:24:00,48.7,45.0,29.83,South,172,0.0,10.0,87,0.00,,---,0.05,VWS V14.01,2013-05-22 05:24:00,
2013-05-21 22:29:00,48.7,44.7,29.83,South,173,0.0,10.0,86,0.00,,---,0.05,VWS V14.01,2013-05-22 05:29:00,
2013-05-21 22:34:00,48.7,45.0,29.84,SSE,163,0.0,4.0,87,0.00,,---,0.05,VWS V14.01,2013-05-22 05:34:00,
2013-05-21 22:39:00,48.7,45.0,29.84,SSE,162,3.0,5.0,87,0.00,,---,0.05,VWS V14.01,2013-05-22 05:39:00,
2013-05-21 22:44:00,48.7,45.3,29.84,SW,229,0.0,5.0,88,0.00,,---,0.05,VWS V14.01,2013-05-22 05:44:00,
2013-05-21 22:49:00,48.8,45.1,29.84,North,360,0.0,5.0,87,0.00,,---,0.05,VWS V14.01,2013-05-22 05:49:00,
2013-05-21 22:54:00,48.8,45.4,29.84,SW,230,3.0,5.0,88,0.00,,---,0.05,VWS V14.01,2013-05-22 05:54:00,
2013-05-21 22:59:00,48.8,45.1,29.84,SSW,205,0.0,5.0,87,0.00,,---,0.05,VWS V14.01,2013-05-22 05:59:00,
2013-05-21 23:04:00,48.6,44.9,29.83,SSW,202,3.0,12.0,87,0.00,,---,0.05,VWS V14.01,2013-05-22 06:04:00,
2013-05-21 23:09:00,48.6,44.9,29.83,South,179,1.0,12.0,87,0.00,,---,0.05,VWS V14.01,2013-05-22 06:09:00,
2013-05-21 23:14:00,48.5,44.8,29.83,SE,142,0.0,12.0,87,0.00,,---,0.05,VWS V14.01,2013-05-22 06:14:00,
2013-05-21 23:19:00,48.5,45.1,29.83,WSW,248,5.0,12.0,88,0.00,,---,0.05,VWS V14.01,2013-05-22 06:19:00,
2013-05-21 23:24:00,48.5,45.1,29.83,SSW,209,2.0,12.0,88,0.00,,---,0.05,VWS V14.01,2013-05-22 06:24:00,
2013-05-21 23:29:00,48.5,45.1,29.83,WSW,238,1.0,12.0,88,0.00,,---,0.05,VWS V14.01,2013-05-22 06:29:00,
2013-05-21 23:34:00,48.5,45.1,29.83,SSE,153,0.0,2.0,88,0.00,,---,0.05,VWS V14.01,2013-05-22 06:34:00,
2013-05-21 23:39:00,48.4,45.0,29.84,South,184,0.0,2.0,88,0.00,,---,0.05,VWS V14.01,2013-05-22 06:39:00,
2013-05-21 23:44:00,48.3,44.9,29.84,South,169,0.0,7.0,88,0.00,,---,0.05,VWS V14.01,2013-05-22 06:44:00,
2013-05-21 23:49:00,48.2,44.8,29.84,SE,136,0.0,7.0,88,0.00,,---,0.05,VWS V14.01,2013-05-22 06:49:00,
2013-05-21 23:54:00,48.2,44.8,29.84,SE,146,0.0,7.0,88,0.00,,---,0.05,VWS V14.01,2013-05-22 06:54:00,
2013-05-21 23:59:00,48.1,44.7,29.84,SSE,147,0.0,7.0,88,0.00,,---,0.05,VWS V14.01,2013-05-22 06:59:00,